Time;durP1;ratioP1;P1;durP2;ratioP2;P2;SDS_P1;SDS_P2;PMS_P1;PMS_P2;Temp;Humidity;BMP_temperature;BMP_pressure;BME280_temperature;BME280_humidity;BME280_pressure;Samples;Min_cycle;Max_cycle;Signal;HPM_P1;HPM_P2
2023/05/01 00:00:24;;;;;;;11.48;9.10;;;;;;;9.75;100.00;95680.00;5054684;28;20029;-75
2023/05/01 00:02:49;;;;;;;10.25;9.15;;;;;;;9.74;100.00;95678.34;5052298;28;20505;-75
2023/05/01 00:05:15;;;;;;;15.23;10.68;;;;;;;9.72;100.00;95675.00;5053670;28;20036;-76
2023/05/01 00:07:40;;;;;;;30.80;27.63;;;;;;;9.78;100.00;95673.66;5053202;28;20575;-75
2023/05/01 00:10:06;;;;;;;23.42;19.02;;;;;;;9.75;100.00;95679.19;5050898;28;20051;-76
2023/05/01 00:12:32;;;;;;;13.27;11.48;;;;;;;9.63;100.00;95673.22;5050538;28;20079;-75
2023/05/01 00:14:57;;;;;;;11.73;10.30;;;;;;;9.59;100.00;95663.91;5054437;28;20457;-75
2023/05/01 00:17:23;;;;;;;9.07;8.23;;;;;;;9.60;100.00;95670.84;5049892;28;20432;-76
2023/05/01 00:19:54;;;;;;;8.55;7.85;;;;;;;9.59;100.00;95662.13;5053145;28;20017;-75
2023/05/01 00:22:20;;;;;;;7.88;7.28;;;;;;;9.59;100.00;95656.03;5047452;28;20532;-75
2023/05/01 00:24:47;;;;;;;11.93;8.32;;;;;;;9.62;100.00;95661.03;5044137;28;20029;-75
2023/05/01 00:27:13;;;;;;;12.85;11.50;;;;;;;9.63;100.00;95654.81;5049467;28;20132;-75
2023/05/01 00:29:38;;;;;;;16.08;13.80;;;;;;;9.66;100.00;95648.44;5049066;28;20053;-75
2023/05/01 00:32:04;;;;;;;12.73;9.02;;;;;;;9.66;100.00;95653.69;5047624;28;20021;-75
2023/05/01 00:34:30;;;;;;;8.27;7.57;;;;;;;9.67;100.00;95648.31;5047962;28;20017;-75
2023/05/01 00:36:55;;;;;;;7.45;6.88;;;;;;;9.68;100.00;95647.34;5052827;28;20033;-75
2023/05/01 00:39:21;;;;;;;8.50;7.80;;;;;;;9.68;100.00;95652.59;5065999;28;20124;-75
2023/05/01 00:41:46;;;;;;;7.97;7.40;;;;;;;9.69;100.00;95643.75;5052918;28;20374;-75
2023/05/01 00:44:11;;;;;;;8.45;7.65;;;;;;;9.71;100.00;95654.94;5066186;28;20051;-76
2023/05/01 00:46:37;;;;;;;7.97;7.28;;;;;;;9.70;100.00;95645.41;5051943;28;20028;-75
2023/05/01 00:49:03;;;;;;;7.68;7.00;;;;;;;9.70;100.00;95650.66;5052590;28;20044;-75
2023/05/01 00:51:30;;;;;;;11.95;8.00;;;;;;;9.70;100.00;95645.41;5052082;28;20080;-75
2023/05/01 00:53:58;;;;;;;11.10;8.25;;;;;;;9.69;100.00;95643.75;5049223;28;20025;-75
2023/05/01 00:56:25;;;;;;;8.35;7.55;;;;;;;9.70;100.00;95634.91;5063251;28;20123;-75
2023/05/01 00:58:53;;;;;;;14.45;13.15;;;;;;;9.77;100.00;95634.34;5052390;28;20014;-75
2023/05/01 01:01:20;;;;;;;8.77;7.90;;;;;;;9.79;100.00;95629.75;5047593;28;20027;-75
2023/05/01 01:03:46;;;;;;;9.65;7.43;;;;;;;9.81;100.00;95630.44;5052498;28;20028;-75
2023/05/01 01:06:27;;;;;;;8.05;7.18;;;;;;;9.80;100.00;95627.00;5052815;28;20032;-75
2023/05/01 01:09:17;;;;;;;6.13;5.70;;;;;;;9.80;100.00;95615.66;5046507;28;20013;-75
2023/05/01 01:11:57;;;;;;;9.25;5.68;;;;;;;9.82;100.00;95616.34;5052675;28;20032;-75
2023/05/01 01:14:41;;;;;;;6.00;5.60;;;;;;;9.81;100.00;95609.41;5051429;28;20059;-75
2023/05/01 01:17:12;;;;;;;7.80;6.07;;;;;;;9.77;100.00;95606.25;5051590;28;20025;-75
2023/05/01 01:20:13;;;;;;;6.25;5.82;;;;;;;9.77;100.00;95611.50;5051067;28;20464;-75
2023/05/01 01:22:42;;;;;;;6.38;5.78;;;;;;;9.78;100.00;95617.59;5048478;28;20021;-75
2023/05/01 01:25:19;;;;;;;8.95;8.07;;;;;;;9.82;100.00;95608.44;5052809;28;20032;-75
2023/05/01 01:28:13;;;;;;;9.00;8.20;;;;;;;9.83;100.00;95602.22;5047406;28;20017;-75
2023/05/01 01:30:45;;;;;;;9.52;8.18;;;;;;;9.82;100.00;95593.50;5047920;28;20139;-75
2023/05/01 01:33:10;;;;;;;8.35;7.57;;;;;;;9.83;100.00;95589.91;5052517;28;20032;-75
2023/05/01 01:35:40;;;;;;;8.10;6.93;;;;;;;9.81;100.00;95583.13;5051052;28;20049;-75
2023/05/01 01:38:12;;;;;;;7.32;6.65;;;;;;;9.79;100.00;95585.06;5052805;28;20041;-75
2023/05/01 01:40:48;;;;;;;6.60;6.10;;;;;;;9.78;100.00;95583.41;5058234;28;20366;-75
2023/05/01 01:43:17;;;;;;;6.10;5.55;;;;;;;9.79;100.00;95582.44;5064571;28;20025;-75
2023/05/01 01:45:46;;;;;;;7.18;6.63;;;;;;;9.85;100.00;95580.09;5052485;28;20021;-75
2023/05/01 01:48:16;;;;;;;8.93;6.38;;;;;;;9.83;100.00;95581.19;5047953;28;20028;-75
2023/05/01 01:50:44;;;;;;;7.72;7.10;;;;;;;9.83;100.00;95578.56;5053700;28;20047;-75
2023/05/01 01:53:14;;;;;;;6.78;6.28;;;;;;;9.83;100.00;95583.81;5051095;28;20071;-75
2023/05/01 01:55:41;;;;;;;7.10;6.50;;;;;;;9.81;100.00;95572.59;5052779;28;20021;-75
2023/05/01 01:58:09;;;;;;;6.63;6.07;;;;;;;9.82;100.00;95582.16;5052077;28;20056;-75
2023/05/01 02:00:35;;;;;;;7.40;6.80;;;;;;;9.84;100.00;95585.50;5054201;28;20056;-76
2023/05/01 02:03:02;;;;;;;8.27;6.80;;;;;;;9.85;100.00;95577.44;5055271;28;20029;-76
2023/05/01 02:05:30;;;;;;;7.47;6.88;;;;;;;9.85;100.00;95581.91;5053173;28;20017;-75
2023/05/01 02:07:56;;;;;;;7.30;6.25;;;;;;;9.86;100.00;95580.94;5055172;28;20041;-75
2023/05/01 02:10:23;;;;;;;7.70;7.20;;;;;;;9.86;100.00;95591.44;5052326;28;20053;-76
2023/05/01 02:12:52;;;;;;;7.10;6.50;;;;;;;9.88;100.00;95595.56;5051897;28;20026;-76
2023/05/01 02:15:18;;;;;;;6.55;6.00;;;;;;;9.90;100.00;95590.19;5053359;28;20303;-76
2023/05/01 02:17:44;;;;;;;11.52;6.57;;;;;;;9.91;100.00;95583.97;5055935;28;20020;-75
2023/05/01 02:20:11;;;;;;;8.82;5.97;;;;;;;9.93;100.00;95584.66;5051981;28;20096;-76
2023/05/01 02:22:39;;;;;;;6.28;5.78;;;;;;;9.95;100.00;95580.06;5056284;28;20515;-75
2023/05/01 02:25:08;;;;;;;6.78;6.22;;;;;;;9.94;100.00;95581.03;5051130;28;20111;-75
2023/05/01 02:27:47;;;;;;;8.48;5.82;;;;;;;9.94;100.00;95583.69;5049400;28;20025;-76
2023/05/01 02:30:12;;;;;;;6.35;5.85;;;;;;;9.98;100.00;95585.03;5056284;28;20021;-75
2023/05/01 02:32:38;;;;;;;6.13;5.57;;;;;;;9.97;100.00;95586.03;5052507;28;20029;-75
2023/05/01 02:35:04;;;;;;;5.50;5.10;;;;;;;9.97;100.00;95586.03;5058243;28;20025;-75
2023/05/01 02:37:29;;;;;;;6.80;5.25;;;;;;;9.95;100.00;95585.34;5051691;28;20488;-75
2023/05/01 02:39:56;;;;;;;7.07;6.55;;;;;;;9.94;100.00;95578.41;5055273;28;20550;-74
2023/05/01 02:42:24;;;;;;;7.25;6.25;;;;;;;9.93;100.00;95582.00;5054808;28;20477;-74
2023/05/01 02:45:07;;;;;;;6.65;6.15;;;;;;;9.95;100.00;95589.78;5055968;28;20028;-74
2023/05/01 02:47:37;;;;;;;6.93;6.53;;;;;;;9.95;100.00;95587.97;5050431;28;20078;-74
2023/05/01 02:50:03;;;;;;;6.55;6.15;;;;;;;9.95;100.00;95589.78;5053041;28;20105;-74
2023/05/01 02:52:30;;;;;;;7.15;6.65;;;;;;;9.95;100.00;95595.84;5048805;28;20052;-74
2023/05/01 02:54:56;;;;;;;7.50;6.38;;;;;;;10.05;100.00;95585.31;5061409;28;20110;-75
2023/05/01 02:57:22;;;;;;;7.50;6.68;;;;;;;10.02;100.00;95581.16;5049857;28;20024;-74
2023/05/01 02:59:47;;;;;;;7.45;6.88;;;;;;;10.03;100.00;95588.06;5056266;28;20111;-74
2023/05/01 03:02:12;;;;;;;7.40;6.80;;;;;;;10.01;100.00;95584.75;5054155;28;20025;-74
2023/05/01 03:04:38;;;;;;;8.10;7.50;;;;;;;10.01;100.00;95590.03;5055727;28;20032;-74
2023/05/01 03:07:03;;;;;;;8.43;7.28;;;;;;;9.99;100.00;95586.72;5054072;28;20460;-74
2023/05/01 03:09:30;;;;;;;9.60;8.60;;;;;;;10.00;100.00;95577.84;5052867;28;20029;-74
2023/05/01 03:11:56;;;;;;;8.65;7.88;;;;;;;9.97;100.00;95572.06;5056583;28;20087;-74
2023/05/01 03:14:22;;;;;;;7.10;6.50;;;;;;;9.97;100.00;95572.06;5050763;28;20029;-73
2023/05/01 03:16:48;;;;;;;7.65;6.72;;;;;;;9.95;100.00;95576.63;5054665;28;20529;-73
2023/05/01 03:19:13;;;;;;;8.07;7.28;;;;;;;9.94;100.00;95567.91;5055056;28;20033;-73
2023/05/01 03:21:38;;;;;;;7.72;7.07;;;;;;;9.92;100.00;95563.72;5051133;28;20405;-73
2023/05/01 03:24:05;;;;;;;10.65;7.80;;;;;;;9.90;100.00;95561.25;5055298;28;20063;-74
2023/05/01 03:26:31;;;;;;;9.18;8.25;;;;;;;9.87;100.00;95556.28;5053248;28;20029;-74
2023/05/01 03:28:57;;;;;;;8.43;7.82;;;;;;;9.87;100.00;95561.56;5051377;28;20441;-73
2023/05/01 03:31:22;;;;;;;8.48;7.88;;;;;;;9.90;100.00;95558.63;5055163;28;20060;-73
2023/05/01 03:33:48;;;;;;;8.40;7.80;;;;;;;9.88;100.00;95557.94;5052013;28;20028;-74
2023/05/01 03:36:15;;;;;;;8.95;7.50;;;;;;;9.89;100.00;95560.41;5051499;28;20057;-75
2023/05/01 03:38:41;;;;;;;8.30;7.70;;;;;;;9.90;100.00;95566.53;5051821;28;20132;-73
2023/05/01 03:41:07;;;;;;;8.18;7.57;;;;;;;9.90;100.00;95561.25;5052246;28;20954;-73
2023/05/01 03:43:32;;;;;;;9.18;8.27;;;;;;;9.89;100.00;95556.97;5053707;28;20021;-74
2023/05/01 03:45:58;;;;;;;8.38;7.78;;;;;;;9.88;100.00;95556.13;5050979;28;20033;-74
2023/05/01 03:48:23;;;;;;;9.98;8.32;;;;;;;9.89;100.00;95554.34;5049575;28;20020;-75
2023/05/01 03:50:49;;;;;;;9.43;8.52;;;;;;;9.90;100.00;95558.63;5051368;28;20039;-75
2023/05/01 03:53:15;;;;;;;9.55;8.88;;;;;;;9.88;100.00;95564.03;5048652;28;20029;-76
2023/05/01 03:55:41;;;;;;;9.23;8.52;;;;;;;9.88;100.00;95564.03;5051908;28;20025;-76
2023/05/01 03:58:06;;;;;;;9.68;8.43;;;;;;;9.86;100.00;95560.72;5045849;28;20029;-76
2023/05/01 04:00:32;;;;;;;9.43;8.52;;;;;;;9.88;100.00;95565.84;5052952;28;20033;-74
2023/05/01 04:02:58;;;;;;;8.98;8.27;;;;;;;9.90;100.00;95566.53;5052808;28;20032;-74
2023/05/01 04:05:23;;;;;;;10.38;9.57;;;;;;;9.95;100.00;95569.56;5052614;28;20771;-74
2023/05/01 04:07:48;;;;;;;12.05;8.05;;;;;;;9.97;100.00;95572.88;5050062;28;20473;-75
2023/05/01 04:10:15;;;;;;;8.70;7.93;;;;;;;10.01;100.00;95574.25;5047844;28;20116;-74
2023/05/01 04:12:41;;;;;;;8.48;7.78;;;;;;;10.01;100.00;95579.50;5054644;28;20085;-74
2023/05/01 04:15:07;;;;;;;8.98;8.27;;;;;;;9.96;100.00;95583.53;5049524;28;20489;-74
2023/05/01 04:17:34;;;;;;;9.13;8.20;;;;;;;9.96;100.00;95579.09;5054340;28;20401;-74
2023/05/01 04:20:00;;;;;;;8.52;7.93;;;;;;;9.97;100.00;95587.84;5048026;28;20033;-74
2023/05/01 04:22:25;;;;;;;8.55;7.70;;;;;;;9.97;100.00;95580.75;5053690;28;20024;-75
2023/05/01 04:24:51;;;;;;;8.88;7.45;;;;;;;9.96;100.00;95584.34;5049033;28;20037;-75
2023/05/01 04:27:18;;;;;;;7.70;7.10;;;;;;;9.96;100.00;95587.00;5053827;28;20112;-74
2023/05/01 04:29:44;;;;;;;8.52;7.80;;;;;;;9.96;100.00;95587.00;5063182;28;20114;-74
2023/05/01 04:32:09;;;;;;;8.50;7.80;;;;;;;9.96;100.00;95586.19;5052156;28;20124;-75
2023/05/01 04:34:35;;;;;;;7.68;6.97;;;;;;;9.97;100.00;95593.91;5055051;28;20029;-74
2023/05/01 04:37:01;;;;;;;8.95;8.35;;;;;;;9.96;100.00;95592.25;5054336;28;20032;-75
2023/05/01 04:39:27;;;;;;;8.55;7.95;;;;;;;9.98;100.00;95589.50;5049394;28;20049;-74
2023/05/01 04:41:52;;;;;;;9.48;8.57;;;;;;;9.99;100.00;95591.97;5041908;28;20367;-74
2023/05/01 04:44:18;;;;;;;8.60;8.00;;;;;;;10.00;100.00;95588.38;5069434;28;20120;-74
2023/05/01 04:46:43;;;;;;;9.45;8.65;;;;;;;10.00;100.00;95592.81;5044330;28;20388;-74
2023/05/01 04:49:09;;;;;;;10.10;9.18;;;;;;;9.98;100.00;95592.94;5048432;28;20471;-74
2023/05/01 04:51:34;;;;;;;9.32;8.45;;;;;;;9.98;100.00;95600.81;5050982;28;20029;-74
2023/05/01 04:54:00;;;;;;;10.23;9.23;;;;;;;9.97;100.00;95599.16;5048689;28;20021;-74
2023/05/01 04:56:25;;;;;;;10.05;9.32;;;;;;;9.99;100.00;95602.47;5052087;28;20429;-74
2023/05/01 04:58:51;;;;;;;9.73;8.65;;;;;;;10.00;100.00;95596.25;5050841;28;20041;-74
2023/05/01 05:01:16;;;;;;;10.45;9.45;;;;;;;10.01;100.00;95594.47;5049945;28;20487;-74
2023/05/01 05:03:42;;;;;;;11.63;9.98;;;;;;;10.01;100.00;95592.66;5052007;28;20162;-74
2023/05/01 05:06:08;;;;;;;10.45;9.65;;;;;;;10.03;100.00;95580.19;5053625;28;20430;-75
2023/05/01 05:08:33;;;;;;;10.35;9.50;;;;;;;10.04;100.00;95587.09;5048364;28;20032;-74
2023/05/01 05:10:59;;;;;;;9.55;8.95;;;;;;;10.09;100.00;95586.69;5049806;28;20104;-74
2023/05/01 05:13:25;;;;;;;11.52;10.43;;;;;;;10.11;100.00;95586.56;5052156;28;20025;-74
2023/05/01 05:15:51;;;;;;;10.18;9.38;;;;;;;10.09;100.00;95584.06;5050624;28;20165;-74
2023/05/01 05:18:16;;;;;;;11.00;9.70;;;;;;;10.09;100.00;95589.31;5053712;28;20035;-74
2023/05/01 05:20:41;;;;;;;10.95;9.82;;;;;;;10.11;100.00;95584.75;5048364;28;20033;-74
2023/05/01 05:23:07;;;;;;;9.75;9.05;;;;;;;10.15;100.00;95595.81;5052004;28;20027;-74
2023/05/01 05:25:32;;;;;;;9.88;9.15;;;;;;;10.16;100.00;95594.84;5056313;28;20032;-74
2023/05/01 05:27:59;;;;;;;10.73;9.93;;;;;;;10.20;100.00;95592.78;5048335;28;20082;-75
2023/05/01 05:30:25;;;;;;;11.75;10.85;;;;;;;10.24;100.00;95594.97;5054192;28;20150;-74
2023/05/01 05:32:50;;;;;;;12.43;11.23;;;;;;;10.28;100.00;95595.50;5052306;28;20028;-75
2023/05/01 05:35:16;;;;;;;12.93;11.93;;;;;;;10.32;100.00;95600.38;5056282;28;20021;-75
2023/05/01 05:37:42;;;;;;;13.18;11.95;;;;;;;10.35;100.00;95596.59;5053651;28;20474;-75
2023/05/01 05:40:08;;;;;;;13.07;11.88;;;;;;;10.44;100.00;95594.94;5055684;28;20404;-75
2023/05/01 05:42:33;;;;;;;13.23;12.05;;;;;;;10.49;100.00;95600.59;5050801;28;20025;-75
2023/05/01 05:44:59;;;;;;;11.90;10.90;;;;;;;10.54;100.00;95595.75;5051805;28;20107;-74
2023/05/01 05:47:24;;;;;;;11.00;9.93;;;;;;;10.58;100.00;95594.50;5051608;28;20017;-75
2023/05/01 05:49:50;;;;;;;10.48;9.68;;;;;;;10.67;100.00;95590.16;5056206;28;20014;-75
2023/05/01 05:52:16;;;;;;;11.05;10.00;;;;;;;10.66;100.00;95598.19;5055809;28;20025;-75
2023/05/01 05:54:41;;;;;;;10.32;9.52;;;;;;;10.67;100.00;95594.59;5055811;28;20048;-75
2023/05/01 05:57:07;;;;;;;9.60;8.57;;;;;;;10.67;100.00;95594.59;5057577;28;20028;-75
2023/05/01 05:59:32;;;;;;;9.93;9.13;;;;;;;10.62;100.00;95596.81;5056084;28;20560;-75
2023/05/01 06:01:58;;;;;;;9.57;8.70;;;;;;;10.67;100.00;95589.31;5052040;28;20041;-75
2023/05/01 06:04:23;;;;;;;11.02;9.85;;;;;;;10.75;100.00;95592.88;5057288;28;20028;-75
2023/05/01 06:06:49;;;;;;;11.00;9.93;;;;;;;10.75;100.00;95594.72;5054639;28;20027;-75
2023/05/01 06:09:16;;;;;;;10.52;9.57;;;;;;;10.78;100.00;95594.41;5053558;28;20032;-75
2023/05/01 06:11:41;;;;;;;10.38;9.57;;;;;;;10.81;100.00;95596.75;5052151;28;20047;-75
2023/05/01 06:14:06;;;;;;;12.55;11.10;;;;;;;10.88;100.00;95591.72;5055191;28;20420;-75
2023/05/01 06:16:33;;;;;;;14.50;12.93;;;;;;;10.95;100.00;95597.25;5053671;28;20017;-75
2023/05/01 06:18:58;;;;;;;13.82;12.65;;;;;;;11.00;100.00;95595.81;5055063;28;20013;-75
2023/05/01 06:21:24;;;;;;;13.77;12.68;;;;;;;11.07;100.00;95598.69;5050643;28;20030;-75
2023/05/01 06:23:49;;;;;;;12.93;11.93;;;;;;;11.08;100.00;95600.34;5054518;28;20020;-75
2023/05/01 06:26:14;;;;;;;13.05;11.75;;;;;;;11.12;100.00;95598.25;5055222;28;20048;-76
2023/05/01 06:28:40;;;;;;;14.15;12.90;;;;;;;11.13;100.00;95603.38;5053357;28;20134;-75
2023/05/01 06:31:06;;;;;;;13.25;12.15;;;;;;;11.22;100.00;95598.19;5052954;28;20489;-76
2023/05/01 06:33:31;;;;;;;13.23;12.23;;;;;;;11.24;100.00;95596.25;5054916;28;20021;-75
2023/05/01 06:35:58;;;;;;;13.52;12.32;;;;;;;11.28;100.00;95601.09;5053807;28;20021;-75
2023/05/01 06:38:25;;;;;;;14.32;13.02;;;;;;;11.28;100.00;95606.34;5054288;28;20052;-75
2023/05/01 06:40:51;;;;;;;12.93;11.80;;;;;;;11.30;100.00;95607.03;5057223;28;20056;-75
2023/05/01 06:43:16;;;;;;;13.85;12.75;;;;;;;11.30;100.00;95606.19;5051371;28;20028;-76
2023/05/01 06:45:42;;;;;;;13.38;12.27;;;;;;;11.29;100.00;95604.53;5055142;28;20036;-76
2023/05/01 06:48:07;;;;;;;12.40;11.30;;;;;;;11.30;100.00;95608.81;5055837;28;20046;-76
2023/05/01 06:50:32;;;;;;;12.38;11.38;;;;;;;11.34;100.00;95607.53;5056364;28;20036;-76
2023/05/01 06:53:01;;;;;;;12.93;11.65;;;;;;;11.46;100.00;95619.53;5052787;28;20029;-75
2023/05/01 06:55:30;;;;;;;12.55;11.55;;;;;;;11.49;100.00;95614.94;5053098;28;20021;-76
2023/05/01 06:57:56;;;;;;;13.73;12.30;;;;;;;11.35;100.00;95616.28;5052864;28;20041;-76
2023/05/01 07:00:21;;;;;;;14.18;12.98;;;;;;;11.29;100.00;95622.97;5053527;28;20025;-75
2023/05/01 07:02:47;;;;;;;13.40;12.30;;;;;;;11.34;100.00;95618.09;5054336;28;20129;-76
2023/05/01 07:05:12;;;;;;;13.07;11.88;;;;;;;11.38;100.00;95614.16;5054256;28;20089;-76
2023/05/01 07:07:38;;;;;;;16.58;15.18;;;;;;;11.48;100.00;95622.00;5046157;28;20021;-76
2023/05/01 07:10:03;;;;;;;20.02;14.13;;;;;;;11.43;100.00;95621.63;5053493;28;20032;-76
2023/05/01 07:12:29;;;;;;;15.80;14.45;;;;;;;11.46;100.00;95616.91;5055343;28;20282;-76
2023/05/01 07:14:55;;;;;;;13.50;12.40;;;;;;;11.54;100.00;95626.72;5049624;28;20032;-74
2023/05/01 07:17:21;;;;;;;12.10;11.07;;;;;;;11.46;100.00;95616.91;5051857;28;20036;-75
2023/05/01 07:19:47;;;;;;;11.90;10.90;;;;;;;11.43;100.00;95624.28;5052455;28;20032;-75
2023/05/01 07:22:12;;;;;;;12.65;11.65;;;;;;;11.45;100.00;95625.78;5050549;28;20021;-75
2023/05/01 07:24:38;;;;;;;11.25;10.32;;;;;;;11.41;100.00;95627.06;5051563;28;20024;-75
2023/05/01 07:27:03;;;;;;;12.90;11.70;;;;;;;11.22;100.00;95629.81;5054711;28;20036;-75
2023/05/01 07:29:28;;;;;;;12.98;11.80;;;;;;;11.17;100.00;95628.47;5050223;28;20016;-74
2023/05/01 07:31:54;;;;;;;12.40;11.40;;;;;;;11.20;100.00;95637.06;5052060;28;20096;-75
2023/05/01 07:34:20;;;;;;;11.57;10.60;;;;;;;11.27;100.00;95635.47;5054286;28;20163;-75
2023/05/01 07:36:45;;;;;;;12.35;11.27;;;;;;;11.20;100.00;95637.06;5052905;28;20509;-75
2023/05/01 07:39:11;;;;;;;12.05;10.98;;;;;;;11.15;100.00;95638.28;5055501;28;20036;-74
2023/05/01 07:41:36;;;;;;;11.95;11.05;;;;;;;11.13;100.00;95637.63;5045357;28;20033;-75
2023/05/01 07:44:02;;;;;;;11.30;10.20;;;;;;;11.18;100.00;95629.28;5053770;28;20052;-75
2023/05/01 07:46:28;;;;;;;9.98;9.15;;;;;;;11.23;100.00;95642.03;5055799;28;20028;-75
2023/05/01 07:48:53;;;;;;;9.70;8.70;;;;;;;11.27;100.00;95648.66;5055811;28;20020;-75
2023/05/01 07:51:19;;;;;;;11.95;8.57;;;;;;;11.11;100.00;95649.28;5055604;28;20036;-75
2023/05/01 07:53:46;;;;;;;8.73;8.02;;;;;;;11.06;100.00;95662.91;5056115;28;20023;-75
2023/05/01 07:56:11;;;;;;;7.07;6.38;;;;;;;11.15;100.00;95664.66;5055918;28;20021;-75
2023/05/01 07:58:37;;;;;;;8.32;7.55;;;;;;;10.96;100.00;95652.41;5056032;28;20035;-75
2023/05/01 08:01:03;;;;;;;8.50;7.70;;;;;;;10.57;100.00;95660.44;5051609;28;20113;-78
2023/05/01 08:03:29;;;;;;;8.43;7.63;;;;;;;10.54;100.00;95664.19;5051724;28;20025;-79
2023/05/01 08:05:55;;;;;;;7.25;6.72;;;;;;;10.52;100.00;95671.41;5048781;28;20062;-77
2023/05/01 08:08:20;;;;;;;9.15;7.20;;;;;;;10.54;100.00;95682.63;5055438;28;20037;-77
2023/05/01 08:10:46;;;;;;;12.18;9.43;;;;;;;10.44;100.00;95687.06;5054697;28;20032;-78
2023/05/01 08:13:12;;;;;;;16.63;15.25;;;;;;;10.38;100.00;95693.69;5056768;28;20021;-75
2023/05/01 08:15:38;;;;;;;11.82;10.82;;;;;;;10.23;100.00;95693.28;5054437;28;20020;-74
2023/05/01 08:18:04;;;;;;;10.32;9.40;;;;;;;10.29;100.00;95682.22;5055399;28;20017;-73
2023/05/01 08:20:29;;;;;;;10.20;7.97;;;;;;;10.24;100.00;95686.22;5049233;28;20055;-73
2023/05/01 08:22:55;;;;;;;7.97;7.05;;;;;;;10.31;100.00;95692.59;5054786;28;20024;-74
2023/05/01 08:25:21;;;;;;;10.20;9.05;;;;;;;10.24;100.00;95689.69;5053646;28;20458;-73
2023/05/01 08:27:46;;;;;;;7.10;6.20;;;;;;;10.18;100.00;95696.34;5035117;28;20094;-73
2023/05/01 08:30:12;;;;;;;9.95;9.15;;;;;;;10.20;100.00;95695.38;5053739;28;20527;-73
2023/05/01 08:32:37;;;;;;;10.18;9.23;;;;;;;10.23;100.00;95692.47;5049697;28;20115;-73
2023/05/01 08:35:03;;;;;;;8.25;7.10;;;;;;;10.28;100.00;95700.75;5045507;28;20029;-73
2023/05/01 08:37:29;;;;;;;8.45;7.57;;;;;;;10.35;100.00;95693.16;5045646;28;20396;-73
2023/05/01 08:39:54;;;;;;;7.88;7.05;;;;;;;10.35;100.00;95704.50;5054991;28;20048;-73
2023/05/01 08:42:20;;;;;;;6.85;6.20;;;;;;;10.27;100.00;95704.38;5053659;28;20021;-71
2023/05/01 08:44:47;;;;;;;5.47;4.57;;;;;;;10.34;100.00;95702.00;5048661;28;20433;-74
2023/05/01 08:47:13;;;;;;;4.47;4.18;;;;;;;10.24;100.00;95704.66;5048888;28;20028;-75
2023/05/01 08:49:40;;;;;;;6.15;5.55;;;;;;;10.25;100.00;95707.13;5052885;28;20302;-77
2023/05/01 08:52:07;;;;;;;6.82;5.22;;;;;;;10.42;100.00;95710.06;5035022;28;20072;-73
2023/05/01 08:54:33;;;;;;;9.63;4.32;;;;;;;10.47;100.00;95705.19;5048964;28;20059;-72
2023/05/01 08:57:03;;;;;;;27.30;19.55;;;;;;;10.39;100.00;95702.41;5046724;28;20036;-71
2023/05/01 08:59:36;;;;;;;6.80;4.70;;;;;;;10.46;100.00;95700.91;5050741;28;20153;-74
2023/05/01 09:02:04;;;;;;;4.60;4.20;;;;;;;10.52;100.00;95694.25;5054096;28;20024;-73
2023/05/01 09:04:35;;;;;;;3.80;3.53;;;;;;;10.59;100.00;95696.19;5054431;28;20028;-73
2023/05/01 09:07:01;;;;;;;4.93;3.53;;;;;;;10.63;100.00;95690.63;5054305;28;20032;-72
2023/05/01 09:09:28;;;;;;;3.72;3.40;;;;;;;10.64;100.00;95698.41;5053715;28;20021;-71
2023/05/01 09:11:59;;;;;;;5.65;5.25;;;;;;;10.66;100.00;95700.88;5055985;28;20029;-72
2023/05/01 09:14:25;;;;;;;6.68;6.00;;;;;;;10.83;100.00;95700.13;5054535;28;20444;-74
2023/05/01 09:16:51;;;;;;;7.03;6.47;;;;;;;10.84;100.00;95696.53;5045833;28;20025;-73
2023/05/01 09:19:17;;;;;;;8.65;7.13;;;;;;;10.88;100.00;95697.91;5052276;28;20079;-74
2023/05/01 09:21:43;;;;;;;7.32;4.78;;;;;;;10.94;100.00;95695.66;5051291;28;20055;-72
2023/05/01 09:24:09;;;;;;;9.57;5.72;;;;;;;11.27;100.00;95696.09;5054385;28;20033;-72
2023/05/01 09:26:38;;;;;;;5.75;5.30;;;;;;;11.33;100.00;95695.50;5054366;28;20421;-72
2023/05/01 09:29:04;;;;;;;13.80;5.65;;;;;;;11.55;100.00;95701.34;5053772;28;20036;-77
2023/05/01 09:31:31;;;;;;;4.88;4.57;;;;;;;11.74;100.00;95698.59;5070098;28;20033;-72
2023/05/01 09:33:58;;;;;;;6.68;5.38;;;;;;;11.92;100.00;95697.78;5055003;28;20021;-74
2023/05/01 09:36:25;;;;;;;5.28;4.60;;;;;;;12.26;100.00;95697.09;5056925;28;20120;-74
2023/05/01 09:38:51;;;;;;;3.42;3.00;;;;;;;12.44;100.00;95701.53;5055909;28;20032;-71
2023/05/01 09:41:19;;;;;;;3.35;3.08;;;;;;;12.67;100.00;95699.25;5053259;28;20703;-72
2023/05/01 09:43:50;;;;;;;3.03;2.83;;;;;;;12.87;100.00;95709.63;5053959;28;20044;-72
2023/05/01 09:46:15;;;;;;;4.03;3.72;;;;;;;12.94;100.00;95699.25;5050844;28;20373;-72
2023/05/01 09:48:54;;;;;;;2.05;1.95;;;;;;;12.99;100.00;95705.72;5046421;28;20501;-76
2023/05/01 09:51:30;;;;;;;2.40;2.30;;;;;;;12.90;100.00;95710.13;5051135;28;20070;-75
2023/05/01 09:53:57;;;;;;;2.22;2.13;;;;;;;12.78;100.00;95711.38;5050715;28;20041;-73
2023/05/01 09:56:25;;;;;;;2.45;1.80;;;;;;;12.66;100.00;95712.59;5049743;28;20503;-74
2023/05/01 09:58:52;;;;;;;3.65;2.13;;;;;;;12.69;100.00;95709.66;5052507;28;20082;-73
2023/05/01 10:01:36;;;;;;;2.30;2.10;;;;;;;12.43;100.00;95713.94;5048587;28;20033;-71
2023/05/01 10:04:02;;;;;;;5.47;1.80;;;;;;;12.64;100.00;95709.28;5051060;28;20556;-72
2023/05/01 10:06:28;;;;;;;5.20;2.30;;;;;;;12.65;100.00;95721.50;5059989;28;20031;-75
2023/05/01 10:08:53;;;;;;;1.98;1.88;;;;;;;12.62;100.00;95720.03;5052632;28;20029;-72
2023/05/01 10:11:19;;;;;;;2.83;2.63;;;;;;;12.58;100.00;95716.00;5052466;28;20255;-72
2023/05/01 10:13:44;;;;;;;2.60;2.40;;;;;;;12.37;100.00;95716.34;5053706;28;20053;-72
2023/05/01 10:16:29;;;;;;;3.50;2.85;;;;;;;12.24;100.00;95725.47;5056735;28;20033;-74
2023/05/01 10:18:58;;;;;;;4.10;3.80;;;;;;;12.06;100.00;95719.41;5055961;28;20021;-72
2023/05/01 10:21:24;;;;;;;3.90;2.88;;;;;;;12.24;100.00;95730.75;5057790;28;20501;-75
2023/05/01 10:23:51;;;;;;;5.25;2.65;;;;;;;12.25;100.00;95732.41;5057728;28;20017;-72
2023/05/01 10:26:17;;;;;;;1.80;1.80;;;;;;;12.19;100.00;95735.66;5057020;28;20025;-73
2023/05/01 10:28:46;;;;;;;1.80;1.77;;;;;;;12.21;100.00;95731.06;5057409;28;20064;-75
2023/05/01 10:31:12;;;;;;;1.88;1.77;;;;;;;12.37;100.00;95732.19;5055948;28;20025;-74
2023/05/01 10:33:41;;;;;;;3.63;2.08;;;;;;;12.31;100.00;95734.47;5052333;28;20501;-77
2023/05/01 10:36:31;;;;;;;1.40;1.30;;;;;;;12.67;100.00;95732.75;5055290;28;20524;-75
2023/05/01 10:38:56;;;;;;;2.35;2.00;;;;;;;12.80;100.00;95727.91;5044664;28;20049;-74
2023/05/01 10:42:00;;;;;;;2.55;2.20;;;;;;;13.11;100.00;95734.53;5056704;28;20484;-75
2023/05/01 10:44:26;;;;;;;2.30;2.10;;;;;;;13.37;100.00;95737.13;5055292;28;20055;-78
2023/05/01 10:46:52;;;;;;;1.98;1.75;;;;;;;13.46;99.71;95725.63;5056245;28;20033;-76
2023/05/01 10:49:18;;;;;;;2.50;2.30;;;;;;;13.54;97.51;95724.00;5054682;28;20081;-76
2023/05/01 10:51:56;;;;;;;2.50;2.40;;;;;;;13.77;99.13;95721.59;5055322;28;20032;-75
2023/05/01 10:54:23;;;;;;;2.63;2.42;;;;;;;13.80;98.20;95715.16;5050724;28;20052;-76
2023/05/01 10:56:49;;;;;;;2.17;1.83;;;;;;;14.00;97.44;95719.16;5055462;28;20591;-77
2023/05/01 10:59:15;;;;;;;22.85;14.25;;;;;;;14.37;97.98;95717.09;5049286;28;20017;-73
2023/05/01 11:01:43;;;;;;;5.18;4.68;;;;;;;14.71;95.31;95717.94;5053398;28;20052;-75
2023/05/01 11:04:18;;;;;;;9.18;6.22;;;;;;;14.87;92.81;95701.19;5051712;28;20116;-78
2023/05/01 11:07:04;;;;;;;6.57;5.38;;;;;;;14.91;92.49;95713.09;5055231;28;20461;-77
2023/05/01 11:09:58;;;;;;;8.90;6.57;;;;;;;14.65;91.49;95715.91;5047833;28;20052;-75
2023/05/01 11:12:45;;;;;;;2.53;2.33;;;;;;;14.78;91.06;95713.59;5046189;28;20096;-78
2023/05/01 11:15:12;;;;;;;7.93;3.05;;;;;;;14.69;88.59;95709.25;5052685;28;20021;-75
2023/05/01 11:17:40;;;;;;;3.53;2.17;;;;;;;14.51;88.56;95705.00;5054692;28;20024;-74
2023/05/01 11:20:06;;;;;;;3.75;3.35;;;;;;;14.66;88.08;95713.09;5056394;28;20029;-75
2023/05/01 11:22:32;;;;;;;4.10;3.80;;;;;;;14.72;85.09;95708.97;5055939;28;21155;-75
2023/05/01 11:24:59;;;;;;;3.22;2.92;;;;;;;15.01;82.98;95708.41;5055060;28;20024;-74